Time;durP1;ratioP1;P1;durP2;ratioP2;P2;SDS_P1;SDS_P2;PMS_P1;PMS_P2;Temp;Humidity;BMP_temperature;BMP_pressure;BME280_temperature;BME280_humidity;BME280_pressure;Samples;Min_cycle;Max_cycle;Signal;HPM_P1;HPM_P2
2023/07/11 00:00:40;;;;;;;6.60;2.45;;;18.90;99.90;;;;;;5091338;28;37584;-83
2023/07/11 00:03:06;;;;;;;6.45;2.10;;;18.90;99.90;;;;;;5088868;28;38793;-84
2023/07/11 00:05:32;;;;;;;6.65;2.10;;;18.90;99.90;;;;;;5090982;28;37043;-83
2023/07/11 00:07:59;;;;;;;5.93;2.15;;;18.90;99.90;;;;;;5091623;28;37959;-84
2023/07/11 00:10:26;;;;;;;5.75;2.50;;;18.90;99.90;;;;;;5089245;28;37829;-83
2023/07/11 00:12:52;;;;;;;6.25;2.40;;;18.90;99.90;;;;;;5069616;28;37888;-83
2023/07/11 00:15:18;;;;;;;5.07;2.05;;;18.90;99.90;;;;;;5089207;28;38484;-83
2023/07/11 00:17:51;;;;;;;4.78;2.08;;;18.90;99.90;;;;;;5090615;28;37976;-83
2023/07/11 00:20:19;;;;;;;2.85;1.88;;;18.80;99.90;;;;;;5091436;28;37612;-83
2023/07/11 00:22:45;;;;;;;4.03;2.22;;;18.80;99.90;;;;;;5088607;28;37682;-84
2023/07/11 00:25:12;;;;;;;6.45;2.65;;;18.80;99.90;;;;;;5087998;28;38499;-83
2023/07/11 00:27:39;;;;;;;5.70;2.03;;;18.80;99.90;;;;;;5088276;28;37549;-82
2023/07/11 00:30:06;;;;;;;4.43;1.95;;;18.80;99.90;;;;;;5082714;28;37340;-83
2023/07/11 00:32:33;;;;;;;5.03;2.40;;;18.80;99.90;;;;;;5088302;28;38739;-82
2023/07/11 00:35:00;;;;;;;6.63;2.25;;;18.80;99.90;;;;;;5088173;28;36861;-82
2023/07/11 00:37:26;;;;;;;5.40;1.98;;;18.70;99.90;;;;;;5085914;28;37388;-84
2023/07/11 00:39:52;;;;;;;5.22;2.10;;;18.70;99.90;;;;;;5090213;28;37452;-84
2023/07/11 00:42:18;;;;;;;4.57;2.13;;;18.70;99.90;;;;;;5085113;28;38862;-82
2023/07/11 00:45:03;;;;;;;7.78;1.80;;;18.70;99.90;;;;;;5085859;28;37220;-83
2023/07/11 00:47:30;;;;;;;3.28;2.03;;;18.70;99.90;;;;;;5083254;28;49056;-83
2023/07/11 00:50:02;;;;;;;8.07;2.35;;;18.70;99.90;;;;;;5082194;28;38743;-83
2023/07/11 00:52:28;;;;;;;5.38;2.28;;;18.60;99.90;;;;;;5086478;28;37120;-83
2023/07/11 00:54:58;;;;;;;5.80;2.30;;;18.60;99.90;;;;;;5088999;28;37924;-83
2023/07/11 00:57:28;;;;;;;5.13;2.55;;;18.60;99.90;;;;;;5086355;28;36366;-82
2023/07/11 00:59:55;;;;;;;8.18;2.42;;;18.60;99.90;;;;;;5091773;28;38560;-83
2023/07/11 01:02:24;;;;;;;9.07;2.33;;;18.60;99.90;;;;;;5510335;22;38808;-78
2023/07/11 01:04:51;;;;;;;6.72;2.42;;;18.60;99.90;;;;;;5012745;28;37786;-78
2023/07/11 01:07:21;;;;;;;6.20;2.00;;;18.60;99.90;;;;;;5022142;28;38233;-76
2023/07/11 01:09:47;;;;;;;6.28;2.30;;;18.50;99.90;;;;;;5024496;28;39132;-76
2023/07/11 01:12:16;;;;;;;4.60;2.15;;;18.50;99.90;;;;;;5026483;28;37644;-77
2023/07/11 01:14:45;;;;;;;4.43;2.05;;;18.50;99.90;;;;;;5019437;28;37001;-77
2023/07/11 01:17:32;;;;;;;7.53;2.58;;;18.60;99.90;;;;;;5010449;28;36085;-76
2023/07/11 01:20:01;;;;;;;7.55;2.28;;;18.50;99.90;;;;;;5036016;28;37855;-76
2023/07/11 01:22:29;;;;;;;6.95;2.40;;;18.50;99.90;;;;;;5018119;28;37343;-76
2023/07/11 01:25:00;;;;;;;6.32;2.30;;;18.50;99.90;;;;;;5016060;28;38116;-76
2023/07/11 01:27:26;;;;;;;6.90;2.50;;;18.60;99.90;;;;;;5022599;28;36189;-77
2023/07/11 01:29:53;;;;;;;7.05;2.47;;;18.50;99.90;;;;;;5028094;28;39611;-77
2023/07/11 01:32:19;;;;;;;6.10;2.40;;;18.50;99.90;;;;;;5024640;28;39138;-76
2023/07/11 01:34:46;;;;;;;5.60;2.17;;;18.50;99.90;;;;;;5022407;28;38233;-77
2023/07/11 01:37:12;;;;;;;5.35;2.33;;;18.50;99.90;;;;;;5022327;28;36236;-77
2023/07/11 01:39:38;;;;;;;6.05;2.25;;;18.60;99.90;;;;;;5026777;28;40450;-79
2023/07/11 01:42:05;;;;;;;6.85;2.50;;;18.50;99.90;;;;;;5014060;28;37221;-77
2023/07/11 01:44:31;;;;;;;4.05;2.10;;;18.60;99.90;;;;;;5024548;28;37940;-77
2023/07/11 01:46:59;;;;;;;5.32;2.00;;;18.60;99.90;;;;;;5019468;28;36413;-77
2023/07/11 01:49:25;;;;;;;6.00;2.20;;;18.60;99.90;;;;;;5012397;28;38904;-77
2023/07/11 01:52:06;;;;;;;7.25;2.33;;;18.50;99.90;;;;;;5030536;28;38530;-77
2023/07/11 01:54:32;;;;;;;6.07;1.90;;;18.50;99.90;;;;;;5017426;28;48967;-77
2023/07/11 01:56:59;;;;;;;8.27;2.58;;;18.50;99.90;;;;;;5036250;28;37174;-77
2023/07/11 01:59:27;;;;;;;4.45;1.80;;;18.50;99.90;;;;;;5024475;28;37508;-77
2023/07/11 02:01:53;;;;;;;3.83;1.75;;;18.50;99.90;;;;;;5017987;28;37436;-77
2023/07/11 02:04:23;;;;;;;8.55;1.98;;;18.50;99.90;;;;;;5028281;28;39115;-77
2023/07/11 02:06:50;;;;;;;7.78;2.33;;;18.40;99.90;;;;;;5023421;28;37071;-76
2023/07/11 02:09:17;;;;;;;7.70;2.10;;;18.40;99.90;;;;;;5024428;28;39675;-77
2023/07/11 02:11:44;;;;;;;6.22;1.90;;;18.40;99.90;;;;;;5046672;28;37697;-77
2023/07/11 02:14:13;;;;;;;8.02;2.15;;;18.40;99.90;;;;;;5023702;28;38426;-77
2023/07/11 02:16:39;;;;;;;7.22;2.53;;;18.40;99.90;;;;;;5023693;28;37426;-77
2023/07/11 02:19:05;;;;;;;8.05;2.50;;;18.30;99.90;;;;;;5026489;28;40165;-77
2023/07/11 02:21:31;;;;;;;9.10;2.50;;;18.30;99.90;;;;;;5046093;28;37744;-77
2023/07/11 02:23:57;;;;;;;6.70;2.20;;;18.30;99.90;;;;;;5028123;28;38487;-77
2023/07/11 02:26:26;;;;;;;9.18;2.28;;;18.30;99.90;;;;;;5022189;28;37324;-77
2023/07/11 02:28:52;;;;;;;7.50;2.33;;;18.30;99.90;;;;;;5025536;28;38603;-77
2023/07/11 02:31:18;;;;;;;7.65;2.28;;;18.30;99.90;;;;;;5022820;28;38114;-77
2023/07/11 02:33:48;;;;;;;3.97;1.98;;;18.30;99.90;;;;;;5016414;28;36892;-77
2023/07/11 02:36:14;;;;;;;6.25;2.15;;;18.20;99.90;;;;;;5040703;28;37483;-76
2023/07/11 02:38:40;;;;;;;3.50;1.50;;;18.20;99.90;;;;;;5020148;28;40437;-77
2023/07/11 02:41:06;;;;;;;12.40;2.35;;;18.20;99.90;;;;;;5028143;28;38751;-77
2023/07/11 02:43:33;;;;;;;6.78;2.30;;;18.10;99.90;;;;;;5025798;28;38532;-77
2023/07/11 02:45:59;;;;;;;9.77;2.00;;;18.10;99.90;;;;;;5043791;28;36079;-76
2023/07/11 02:48:26;;;;;;;9.07;2.33;;;18.10;99.90;;;;;;5023428;28;38925;-76
2023/07/11 02:50:52;;;;;;;6.30;1.98;;;18.10;99.90;;;;;;5008839;28;39754;-77
2023/07/11 02:53:20;;;;;;;5.82;2.10;;;18.00;99.90;;;;;;5015165;28;38807;-77
2023/07/11 02:55:46;;;;;;;8.63;2.80;;;18.10;99.90;;;;;;5018747;28;37199;-77
2023/07/11 02:58:12;;;;;;;10.38;2.17;;;18.10;99.90;;;;;;5017301;28;38431;-77
2023/07/11 03:00:38;;;;;;;6.18;2.17;;;18.10;99.90;;;;;;5018864;28;38677;-77
2023/07/11 03:03:04;;;;;;;7.95;2.55;;;18.10;99.90;;;;;;5023451;28;39349;-77
2023/07/11 03:05:30;;;;;;;8.70;2.40;;;18.10;99.90;;;;;;5026491;28;37567;-77
2023/07/11 03:07:56;;;;;;;8.95;2.08;;;18.10;99.90;;;;;;5021212;28;37602;-77
2023/07/11 03:10:23;;;;;;;7.78;2.22;;;18.00;99.90;;;;;;5025383;28;39515;-77
2023/07/11 03:12:49;;;;;;;6.13;2.22;;;18.10;99.90;;;;;;5021337;28;37223;-76
2023/07/11 03:15:15;;;;;;;4.70;2.10;;;18.10;99.90;;;;;;5026886;28;35962;-76
2023/07/11 03:17:41;;;;;;;5.63;2.15;;;18.00;99.90;;;;;;5023510;28;38848;-76
2023/07/11 03:20:08;;;;;;;6.78;2.13;;;18.00;99.90;;;;;;5022571;28;38889;-76
2023/07/11 03:22:34;;;;;;;4.82;2.08;;;17.90;99.90;;;;;;5043188;28;37948;-76
2023/07/11 03:25:00;;;;;;;7.82;1.90;;;17.90;99.90;;;;;;5019526;28;37114;-76
2023/07/11 03:27:26;;;;;;;8.10;2.80;;;17.90;99.90;;;;;;5021113;28;38605;-76
2023/07/11 03:29:52;;;;;;;9.13;2.08;;;17.90;99.90;;;;;;5027778;28;39361;-76
2023/07/11 03:32:18;;;;;;;7.38;2.70;;;17.90;99.90;;;;;;5027158;28;38818;-76
2023/07/11 03:34:44;;;;;;;8.65;2.42;;;17.90;99.90;;;;;;5023043;28;37407;-76
2023/07/11 03:37:11;;;;;;;6.03;2.13;;;17.90;99.90;;;;;;5016107;28;37710;-76
2023/07/11 03:39:37;;;;;;;13.75;2.70;;;17.90;99.90;;;;;;5030782;28;38861;-76
2023/07/11 03:42:03;;;;;;;6.07;2.17;;;17.90;99.90;;;;;;5020690;28;38202;-77
2023/07/11 03:44:29;;;;;;;7.88;2.17;;;17.90;99.90;;;;;;5025287;28;37947;-77
2023/07/11 03:46:55;;;;;;;9.00;2.38;;;18.00;99.90;;;;;;5027472;28;37813;-76
2023/07/11 03:49:21;;;;;;;4.75;1.85;;;17.90;99.90;;;;;;5043546;28;37601;-76
2023/07/11 03:51:48;;;;;;;7.72;2.00;;;17.90;99.90;;;;;;5033966;28;38591;-77
2023/07/11 03:54:14;;;;;;;5.13;2.17;;;17.90;99.90;;;;;;5018314;28;38195;-76
2023/07/11 03:56:40;;;;;;;8.68;2.38;;;18.00;99.90;;;;;;5021365;28;37831;-76
2023/07/11 03:59:06;;;;;;;6.50;1.80;;;18.00;99.90;;;;;;5027403;28;39634;-77
2023/07/11 04:01:32;;;;;;;7.10;2.28;;;18.00;99.90;;;;;;5027477;28;38171;-77
2023/07/11 04:03:58;;;;;;;9.18;2.10;;;18.00;99.90;;;;;;5022738;28;35756;-77
2023/07/11 04:06:24;;;;;;;6.18;1.80;;;18.00;99.90;;;;;;5020409;28;39143;-76
2023/07/11 04:08:51;;;;;;;6.68;1.58;;;18.00;99.90;;;;;;5017192;28;20054;-76
2023/07/11 04:11:17;;;;;;;4.45;1.95;;;18.00;99.90;;;;;;5020331;28;38568;-76
2023/07/11 04:13:44;;;;;;;7.10;2.03;;;18.00;99.90;;;;;;5016771;28;36990;-75
2023/07/11 04:16:10;;;;;;;4.15;1.77;;;18.00;99.90;;;;;;5015525;28;39624;-76
2023/07/11 04:18:36;;;;;;;5.32;1.50;;;18.10;99.90;;;;;;5018039;28;38151;-77
2023/07/11 04:21:02;;;;;;;6.55;1.80;;;18.00;99.90;;;;;;5021568;28;38430;-76
2023/07/11 04:23:28;;;;;;;4.57;1.80;;;18.00;99.90;;;;;;5025551;28;38189;-78
2023/07/11 04:25:54;;;;;;;4.07;1.80;;;18.00;99.90;;;;;;5022037;28;39907;-76
2023/07/11 04:28:21;;;;;;;4.18;1.60;;;18.00;99.90;;;;;;5022243;28;39421;-76
2023/07/11 04:30:47;;;;;;;8.60;2.40;;;18.00;99.90;;;;;;5022176;28;37748;-76
2023/07/11 04:33:13;;;;;;;3.92;1.80;;;18.10;99.90;;;;;;5016805;28;37030;-76
2023/07/11 04:35:40;;;;;;;7.13;2.17;;;18.10;99.90;;;;;;5023270;28;38957;-76
2023/07/11 04:38:06;;;;;;;8.25;2.47;;;18.10;99.90;;;;;;5015686;28;38337;-76
2023/07/11 04:40:32;;;;;;;4.63;1.98;;;18.00;99.90;;;;;;5019967;28;38519;-77
2023/07/11 04:42:59;;;;;;;3.58;1.35;;;18.00;99.90;;;;;;5012395;28;36361;-76
2023/07/11 04:45:25;;;;;;;10.30;2.50;;;18.00;99.90;;;;;;5024812;28;38576;-76
2023/07/11 04:47:51;;;;;;;7.45;1.83;;;18.00;99.90;;;;;;5015974;28;37507;-76
2023/07/11 04:50:17;;;;;;;10.68;2.38;;;17.90;99.90;;;;;;5024161;28;38137;-76
2023/07/11 04:52:44;;;;;;;8.68;2.72;;;18.00;99.90;;;;;;5022358;28;37546;-77
2023/07/11 04:55:10;;;;;;;9.88;2.80;;;18.00;99.90;;;;;;5016826;28;38885;-76
2023/07/11 04:57:36;;;;;;;9.27;3.35;;;18.00;99.90;;;;;;5013267;28;37270;-76
2023/07/11 05:00:05;;;;;;;10.40;3.58;;;18.00;99.90;;;;;;5028477;28;37667;-76
2023/07/11 05:02:32;;;;;;;9.10;2.88;;;18.00;99.90;;;;;;5017110;28;36952;-76
2023/07/11 05:04:58;;;;;;;8.68;2.85;;;18.00;99.90;;;;;;5024391;28;38226;-76
2023/07/11 05:07:24;;;;;;;7.25;2.50;;;18.10;99.90;;;;;;5015247;28;38424;-76
2023/07/11 05:09:50;;;;;;;8.07;2.83;;;18.10;99.90;;;;;;5035594;28;38027;-77
2023/07/11 05:12:16;;;;;;;9.63;2.83;;;18.20;99.90;;;;;;5029926;28;37636;-76
2023/07/11 05:14:42;;;;;;;8.45;3.28;;;18.40;99.90;;;;;;5028665;28;37569;-76
2023/07/11 05:17:08;;;;;;;7.25;3.03;;;18.70;99.90;;;;;;5033288;28;36900;-77
2023/07/11 05:19:34;;;;;;;7.13;2.95;;;18.90;99.90;;;;;;5021610;28;39284;-76
2023/07/11 05:22:00;;;;;;;8.30;2.95;;;19.00;99.90;;;;;;5023801;28;36519;-77
2023/07/11 05:24:27;;;;;;;10.48;2.78;;;19.20;99.90;;;;;;5022606;28;46498;-77
2023/07/11 05:26:53;;;;;;;11.27;3.25;;;19.30;99.90;;;;;;5031717;28;38586;-77
2023/07/11 05:29:19;;;;;;;9.20;3.55;;;19.50;95.70;;;;;;5013912;28;37074;-77
2023/07/11 05:31:45;;;;;;;9.30;3.45;;;19.70;90.20;;;;;;5024266;28;37660;-77
2023/07/11 05:34:12;;;;;;;6.35;3.38;;;19.80;90.30;;;;;;5019036;28;37758;-77
2023/07/11 05:36:38;;;;;;;7.75;3.60;;;19.90;85.30;;;;;;5024077;28;38293;-77
2023/07/11 05:39:11;;;;;;;9.68;3.42;;;19.90;71.80;;;;;;5015173;28;37962;-77
2023/07/11 05:41:44;;;;;;;8.50;2.97;;;20.10;73.60;;;;;;5015560;28;36149;-77
2023/07/11 05:44:12;;;;;;;10.75;3.55;;;20.30;73.50;;;;;;5022120;28;37683;-77
2023/07/11 05:46:39;;;;;;;7.68;2.85;;;20.30;56.60;;;;;;5014809;28;38375;-77
2023/07/11 05:49:06;;;;;;;8.35;3.30;;;20.40;54.80;;;;;;5017449;28;37541;-78
2023/07/11 05:51:32;;;;;;;12.55;3.65;;;20.40;61.50;;;;;;5026683;28;37035;-77
2023/07/11 05:53:59;;;;;;;9.82;3.80;;;20.50;49.30;;;;;;5020276;28;39668;-78
2023/07/11 05:56:26;;;;;;;8.40;3.33;;;20.50;36.90;;;;;;5030442;28;38561;-77
2023/07/11 05:58:53;;;;;;;9.85;3.85;;;20.50;45.00;;;;;;5017066;28;39036;-77
2023/07/11 06:01:22;;;;;;;11.75;3.63;;;20.60;24.20;;;;;;5026399;28;38205;-78
2023/07/11 06:03:50;;;;;;;7.50;3.80;;;20.80;7.50;;;;;;5027267;28;38898;-77
2023/07/11 06:06:18;;;;;;;11.52;4.38;;;20.80;1.00;;;;;;5022055;28;37293;-78
2023/07/11 06:08:45;;;;;;;7.85;3.55;;;21.00;1.00;;;;;;5019316;28;35495;-78
2023/07/11 06:11:11;;;;;;;8.57;4.50;;;21.10;1.00;;;;;;5024141;28;38307;-77
2023/07/11 06:13:39;;;;;;;11.77;5.00;;;21.20;1.00;;;;;;5034237;28;38504;-78
2023/07/11 06:16:14;;;;;;;9.02;4.43;;;21.30;1.00;;;;;;5029766;28;38784;-78
2023/07/11 06:18:40;;;;;;;10.27;4.32;;;21.30;1.00;;;;;;5033845;28;37397;-78
2023/07/11 06:21:07;;;;;;;10.38;4.00;;;21.30;1.00;;;;;;5032059;28;38316;-77
2023/07/11 06:23:33;;;;;;;16.83;5.65;;;21.50;1.00;;;;;;5026243;28;38839;-77
2023/07/11 06:25:59;;;;;;;9.70;4.55;;;21.40;1.00;;;;;;5030183;28;37087;-78
2023/07/11 06:28:27;;;;;;;10.93;4.82;;;21.50;1.00;;;;;;5017563;28;39088;-78
2023/07/11 06:30:58;;;;;;;8.25;4.35;;;21.60;1.00;;;;;;5026301;28;37968;-78
2023/07/11 06:33:25;;;;;;;10.53;4.00;;;21.80;1.00;;;;;;5028304;28;39388;-78
2023/07/11 06:35:52;;;;;;;8.75;4.70;;;22.10;1.00;;;;;;5031512;28;36960;-79
2023/07/11 06:38:19;;;;;;;10.25;4.00;;;22.10;1.00;;;;;;5032072;28;36820;-80
2023/07/11 06:40:54;;;;;;;12.30;4.10;;;22.20;1.00;;;;;;5029656;28;37183;-78
2023/07/11 06:43:22;;;;;;;9.55;4.07;;;22.20;1.00;;;;;;5029046;28;37733;-79
2023/07/11 06:45:50;;;;;;;9.75;4.35;;;22.30;1.00;;;;;;5032575;28;37016;-78
2023/07/11 06:48:18;;;;;;;8.45;4.18;;;22.40;1.00;;;;;;5028349;28;38764;-79
2023/07/11 06:50:51;;;;;;;9.07;3.67;;;22.70;1.00;;;;;;5031069;28;37517;-79
2023/07/11 06:53:21;;;;;;;10.93;3.88;;;22.70;1.00;;;;;;5015292;28;39171;-78
2023/07/11 06:55:50;;;;;;;10.70;3.92;;;22.80;1.00;;;;;;5021985;28;39748;-80
2023/07/11 06:58:16;;;;;;;16.00;3.90;;;22.90;1.00;;;;;;5025203;28;38237;-78
2023/07/11 07:00:43;;;;;;;12.10;3.70;;;22.90;1.00;;;;;;5020767;28;37037;-78
2023/07/11 07:03:13;;;;;;;10.55;2.97;;;23.10;1.00;;;;;;5021404;28;39096;-78
2023/07/11 07:05:54;;;;;;;7.72;2.90;;;23.40;1.00;;;;;;5019102;28;38738;-78
2023/07/11 07:08:22;;;;;;;8.93;3.03;;;23.80;1.00;;;;;;5021660;28;38121;-78
2023/07/11 07:10:49;;;;;;;4.10;2.60;;;24.00;1.00;;;;;;5015987;28;37565;-78
2023/07/11 07:13:17;;;;;;;8.25;2.55;;;24.10;1.00;;;;;;5023316;28;37680;-78
2023/07/11 07:15:49;;;;;;;6.68;2.55;;;24.30;1.00;;;;;;5030933;28;36950;-78
2023/07/11 07:18:16;;;;;;;3.72;2.08;;;24.40;1.00;;;;;;5033213;28;38997;-78
2023/07/11 07:20:46;;;;;;;10.95;2.50;;;24.50;1.00;;;;;;5023799;28;37360;-79
2023/07/11 07:23:13;;;;;;;7.10;2.47;;;24.60;1.00;;;;;;5021665;28;37612;-78
2023/07/11 07:25:39;;;;;;;8.15;2.05;;;24.80;1.00;;;;;;5024941;28;39648;-79
2023/07/11 07:28:07;;;;;;;7.82;2.03;;;24.90;1.00;;;;;;5012243;28;37856;-78
2023/07/11 07:30:34;;;;;;;6.90;1.85;;;24.90;99.90;;;;;;5037557;28;38895;-79
2023/07/11 07:33:01;;;;;;;6.13;1.80;;;25.30;1.00;;;;;;5032428;28;37758;-79
2023/07/11 07:35:28;;;;;;;4.72;2.00;;;25.50;1.00;;;;;;5023477;28;47134;-78
2023/07/11 07:37:54;;;;;;;9.93;2.38;;;25.50;1.00;;;;;;5015131;28;37010;-79
2023/07/11 07:40:21;;;;;;;7.28;2.05;;;25.00;99.90;;;;;;5019888;28;36713;-79
2023/07/11 07:42:47;;;;;;;6.13;2.08;;;25.10;99.90;;;;;;5028787;28;39017;-78
2023/07/11 07:45:13;;;;;;;5.28;1.80;;;25.20;99.90;;;;;;5029789;28;39067;-79
2023/07/11 07:47:40;;;;;;;5.05;1.80;;;25.50;99.90;;;;;;5017613;28;36925;-79
2023/07/11 07:50:06;;;;;;;9.70;2.13;;;25.80;99.90;;;;;;5017438;28;37069;-79
2023/07/11 07:52:32;;;;;;;6.47;1.92;;;26.10;99.90;;;;;;5019135;28;38688;-78
2023/07/11 07:54:58;;;;;;;6.82;2.42;;;26.20;1.00;;;;;;5030275;28;37949;-79
2023/07/11 07:57:25;;;;;;;7.63;2.53;;;25.60;1.00;;;;;;5024470;28;36885;-79
2023/07/11 07:59:51;;;;;;;6.43;2.25;;;25.40;1.00;;;;;;5017871;28;36211;-79
2023/07/11 08:02:17;;;;;;;6.75;1.90;;;25.40;99.90;;;;;;5025018;28;37945;-79
2023/07/11 08:04:46;;;;;;;6.45;2.40;;;25.50;99.90;;;;;;5023970;28;37383;-79
2023/07/11 08:07:12;;;;;;;11.38;2.13;;;25.60;99.90;;;;;;5013241;28;37142;-79
2023/07/11 08:09:38;;;;;;;5.90;1.63;;;25.70;91.60;;;;;;5018465;28;37047;-79
2023/07/11 08:12:06;;;;;;;8.05;2.40;;;25.60;99.90;;;;;;5027052;28;37785;-79
2023/07/11 08:14:38;;;;;;;9.10;2.25;;;25.70;57.10;;;;;;5015990;28;37888;-80
2023/07/11 08:17:05;;;;;;;5.68;2.00;;;25.70;1.00;;;;;;5027563;28;36783;-79
2023/07/11 08:19:31;;;;;;;8.88;2.08;;;26.00;99.90;;;;;;5021223;28;36905;-79
2023/07/11 08:21:58;;;;;;;9.55;2.13;;;26.20;99.90;;;;;;5023533;28;38574;-80
2023/07/11 08:24:24;;;;;;;6.80;2.08;;;26.00;1.00;;;;;;5023648;28;37204;-79
2023/07/11 08:26:51;;;;;;;7.05;1.80;;;25.90;1.00;;;;;;5023686;28;37134;-80
2023/07/11 08:29:17;;;;;;;9.25;2.20;;;26.00;1.00;;;;;;5026439;28;37048;-79
2023/07/11 08:31:43;;;;;;;5.10;1.88;;;26.10;99.90;;;;;;5029535;28;40250;-79
2023/07/11 08:34:10;;;;;;;5.07;1.90;;;26.30;1.00;;;;;;5031407;28;37304;-79
2023/07/11 08:36:39;;;;;;;4.57;2.05;;;26.50;1.00;;;;;;5050900;28;37822;-79
2023/07/11 08:39:06;;;;;;;15.77;2.20;;;26.70;99.90;;;;;;5046113;28;37351;-79
2023/07/11 08:41:50;;;;;;;5.85;1.75;;;26.30;1.00;;;;;;5024088;28;37544;-79
2023/07/11 08:44:22;;;;;;;4.68;1.90;;;26.30;1.00;;;;;;5029827;28;37469;-79
2023/07/11 08:46:58;;;;;;;6.90;1.80;;;26.50;99.90;;;;;;5024490;28;39468;-79
2023/07/11 08:49:33;;;;;;;6.22;1.70;;;26.50;99.90;;;;;;5016273;28;36485;-78
2023/07/11 08:52:02;;;;;;;8.20;2.13;;;26.50;1.00;;;;;;5031339;28;38112;-78
2023/07/11 08:54:32;;;;;;;6.93;2.03;;;26.60;99.90;;;;;;5019434;28;47092;-79
2023/07/11 08:56:59;;;;;;;6.22;1.85;;;26.60;1.00;;;;;;5025494;28;36891;-79
2023/07/11 08:59:48;;;;;;;6.07;1.70;;;26.50;1.00;;;;;;5025727;28;37251;-80
2023/07/11 09:02:32;;;;;;;6.28;1.75;;;26.70;1.00;;;;;;5043926;28;37902;-79
2023/07/11 09:04:59;;;;;;;5.13;1.98;;;26.60;1.00;;;;;;5029769;28;38377;-80
2023/07/11 09:07:40;;;;;;;6.50;1.80;;;27.00;1.00;;;;;;5024723;28;37796;-80
2023/07/11 09:10:40;;;;;;;4.50;1.70;;;27.00;99.90;;;;;;5022922;28;35893;-79
2023/07/11 09:13:25;;;;;;;8.30;1.92;;;27.20;99.90;;;;;;5023039;28;38670;-80
2023/07/11 09:16:05;;;;;;;5.82;1.90;;;27.40;99.90;;;;;;5042729;28;37000;-80
2023/07/11 09:18:37;;;;;;;6.75;1.70;;;27.10;99.90;;;;;;5027796;28;46545;-79
2023/07/11 09:21:18;;;;;;;4.05;1.80;;;27.00;99.90;;;;;;5033888;28;37718;-80
2023/07/11 09:23:56;;;;;;;4.90;1.75;;;27.20;99.90;;;;;;5043393;28;37777;-80
2023/07/11 09:26:27;;;;;;;6.43;1.88;;;27.50;99.90;;;;;;5041448;28;37296;-80
2023/07/11 09:29:05;;;;;;;5.18;1.77;;;27.70;1.00;;;;;;5029951;28;36832;-79
2023/07/11 09:31:50;;;;;;;4.95;1.55;;;27.40;1.00;;;;;;5041369;28;48194;-80
2023/07/11 09:34:37;;;;;;;4.15;2.00;;;27.30;1.00;;;;;;5033906;28;37881;-80
2023/07/11 09:37:10;;;;;;;6.10;1.70;;;27.50;99.90;;;;;;5038539;28;38252;-80
2023/07/11 09:39:57;;;;;;;5.78;1.60;;;27.40;1.00;;;;;;5040187;28;38047;-79
2023/07/11 09:42:42;;;;;;;4.70;1.77;;;27.50;1.00;;;;;;5036598;28;35610;-79
2023/07/11 09:45:14;;;;;;;4.72;1.52;;;27.50;39.80;;;;;;5023434;28;39761;-79
2023/07/11 09:47:41;;;;;;;;;;;27.70;1.00;;;;;;5034763;28;38556;-79
2023/07/11 09:50:34;;;;;;;4.40;1.92;;;27.80;1.00;;;;;;5021954;28;36870;-79
2023/07/11 09:53:02;;;;;;;4.05;1.77;;;27.60;2.40;;;;;;5018669;28;35800;-80
2023/07/11 09:55:34;;;;;;;10.10;2.17;;;27.10;1.00;;;;;;5030581;28;48617;-79
2023/07/11 09:58:02;;;;;;;5.00;1.80;;;26.90;1.00;;;;;;5034837;28;38685;-79
2023/07/11 10:00:29;;;;;;;6.30;2.05;;;26.90;1.00;;;;;;5029854;28;45307;-79
2023/07/11 10:02:59;;;;;;;2.95;1.58;;;26.70;1.00;;;;;;5021684;28;37702;-79
2023/07/11 10:05:25;;;;;;;4.22;1.63;;;27.00;1.00;;;;;;5029572;28;37917;-78
2023/07/11 10:08:03;;;;;;;9.00;2.08;;;27.10;99.90;;;;;;5039934;28;38473;-79
2023/07/11 10:10:30;;;;;;;5.28;1.90;;;27.40;1.00;;;;;;5056659;28;46874;-79
2023/07/11 10:13:09;;;;;;;7.57;2.00;;;27.60;1.00;;;;;;5044057;28;36094;-79
2023/07/11 10:15:35;;;;;;;9.70;2.22;;;27.10;1.00;;;;;;5041180;28;47242;-79
2023/07/11 10:18:01;;;;;;;3.78;1.73;;;26.30;1.00;;;;;;5033393;28;38455;-79
2023/07/11 10:20:29;;;;;;;6.03;2.10;;;26.40;86.30;;;;;;5055879;28;37597;-79
2023/07/11 10:23:02;;;;;;;7.22;2.25;;;26.30;1.00;;;;;;5033161;28;37594;-79
2023/07/11 10:25:31;;;;;;;5.85;1.90;;;26.50;1.00;;;;;;5032757;28;47064;-78
2023/07/11 10:28:08;;;;;;;10.10;2.35;;;26.80;1.00;;;;;;5048697;28;37472;-79
2023/07/11 10:30:37;;;;;;;7.38;2.28;;;27.10;1.00;;;;;;5034628;28;49129;-79
2023/07/11 10:33:13;;;;;;;7.68;2.05;;;27.30;99.90;;;;;;5024218;28;36178;-79
2023/07/11 10:35:41;;;;;;;5.70;2.10;;;27.40;1.00;;;;;;5049484;28;37649;-79
2023/07/11 10:38:30;;;;;;;9.05;3.30;;;27.40;1.00;;;;;;5032775;28;38060;-78
2023/07/11 10:41:00;;;;;;;6.00;2.40;;;27.00;1.00;;;;;;5023534;28;39336;-79
2023/07/11 10:43:38;;;;;;;3.92;1.98;;;27.20;99.90;;;;;;5032374;28;37766;-79
2023/07/11 10:46:17;;;;;;;6.55;2.38;;;27.20;1.00;;;;;;5032311;28;39032;-78
2023/07/11 10:48:52;;;;;;;8.95;2.60;;;27.70;34.70;;;;;;5031203;28;39233;-79
2023/07/11 10:51:45;;;;;;;6.32;2.50;;;28.20;1.00;;;;;;5034695;28;39217;-79
2023/07/11 10:54:36;;;;;;;6.32;2.35;;;28.10;1.00;;;;;;5057011;28;36361;-79
2023/07/11 10:57:10;;;;;;;5.43;1.70;;;27.30;57.10;;;;;;5053621;28;39106;-79
2023/07/11 10:59:37;;;;;;;9.13;2.45;;;27.80;99.90;;;;;;5043443;28;37869;-79
2023/07/11 11:02:14;;;;;;;2.88;1.67;;;28.10;1.00;;;;;;5044988;28;38528;-79
2023/07/11 11:05:07;;;;;;;6.35;2.53;;;28.50;1.00;;;;;;5036249;28;37532;-78
2023/07/11 11:08:06;;;;;;;7.13;2.20;;;28.10;25.30;;;;;;5047562;28;47818;-80
2023/07/11 11:10:58;;;;;;;6.35;1.58;;;28.10;99.90;;;;;;5045015;28;47924;-80
2023/07/11 11:13:51;;;;;;;5.85;1.77;;;28.00;99.90;;;;;;5046184;28;37929;-79
2023/07/11 11:16:45;;;;;;;6.30;2.00;;;28.20;1.00;;;;;;5041286;28;37821;-80
2023/07/11 11:19:22;;;;;;;5.35;1.95;;;28.10;1.00;;;;;;5038640;28;41437;-79
2023/07/11 11:22:04;;;;;;;6.07;1.90;;;28.10;1.00;;;;;;5036139;28;37325;-80
2023/07/11 11:24:57;;;;;;;4.20;2.00;;;28.20;99.90;;;;;;5036583;28;48757;-80
2023/07/11 11:27:32;;;;;;;6.15;2.00;;;28.40;1.00;;;;;;5029976;28;38235;-80
2023/07/11 11:30:40;;;;;;;3.60;1.70;;;28.80;1.00;;;;;;5038348;28;39480;-78
2023/07/11 11:33:09;;;;;;;7.90;1.65;;;28.90;1.00;;;;;;5025720;28;48493;-79
2023/07/11 11:36:11;;;;;;;7.18;1.88;;;28.90;1.00;;;;;;5020745;28;37233;-79
2023/07/11 11:39:10;;;;;;;4.22;1.67;;;29.10;99.90;;;;;;5035932;28;47087;-79
2023/07/11 11:41:56;;;;;;;4.90;1.55;;;29.20;1.00;;;;;;5026630;28;49249;-79
2023/07/11 11:44:35;;;;;;;4.28;1.75;;;28.80;99.90;;;;;;5039434;28;38148;-79
2023/07/11 11:47:03;;;;;;;7.22;2.15;;;29.00;1.00;;;;;;5034853;28;38174;-79
2023/07/11 11:49:30;;;;;;;3.42;1.50;;;29.50;1.00;;;;;;5035014;28;47563;-79
2023/07/11 11:51:57;;;;;;;6.72;1.98;;;29.80;1.00;;;;;;5051199;28;39975;-79
2023/07/11 11:54:25;;;;;;;5.15;1.52;;;30.00;1.00;;;;;;5022002;28;38032;-79
2023/07/11 11:56:56;;;;;;;6.38;1.70;;;29.90;1.00;;;;;;5028386;28;39582;-79
2023/07/11 11:59:27;;;;;;;6.38;1.80;;;29.80;99.90;;;;;;5044863;28;36955;-79
2023/07/11 12:01:53;;;;;;;6.85;2.33;;;29.70;99.90;;;;;;5018114;28;39719;-78
2023/07/11 12:04:29;;;;;;;7.53;1.70;;;30.00;99.90;;;;;;5025201;28;38826;-78
2023/07/11 12:07:10;;;;;;;4.07;1.50;;;29.70;1.00;;;;;;5030713;28;37819;-78
2023/07/11 12:10:01;;;;;;;5.78;1.73;;;29.60;1.00;;;;;;5029482;28;47375;-78
2023/07/11 12:12:31;;;;;;;4.93;1.60;;;29.60;1.00;;;;;;5029894;28;39905;-79
2023/07/11 12:15:00;;;;;;;3.00;1.60;;;29.60;99.90;;;;;;5024111;28;39598;-78
2023/07/11 12:17:32;;;;;;;3.35;1.55;;;29.80;99.90;;;;;;5014397;28;37187;-78
2023/07/11 12:20:01;;;;;;;3.47;1.52;;;29.80;1.00;;;;;;5032146;28;36118;-77
2023/07/11 12:22:31;;;;;;;5.18;1.42;;;29.90;30.80;;;;;;5027501;28;40208;-79
2023/07/11 12:25:07;;;;;;;3.77;1.50;;;30.10;1.00;;;;;;5027956;28;37449;-78
2023/07/11 12:27:33;;;;;;;2.97;1.42;;;30.00;1.00;;;;;;5043282;28;47157;-78
2023/07/11 12:30:02;;;;;;;4.03;1.52;;;30.10;99.90;;;;;;5028255;28;36001;-78
2023/07/11 12:32:29;;;;;;;5.10;1.40;;;30.10;1.00;;;;;;5033595;28;38635;-78
2023/07/11 12:34:56;;;;;;;5.88;1.80;;;29.70;1.00;;;;;;5024768;28;38077;-78
2023/07/11 12:37:26;;;;;;;3.20;1.45;;;29.40;99.90;;;;;;5024203;28;36980;-79
2023/07/11 12:40:19;;;;;;;4.80;1.60;;;29.40;1.00;;;;;;5024701;28;38625;-78
2023/07/11 12:42:52;;;;;;;4.97;1.45;;;29.40;1.00;;;;;;5027102;28;48189;-78
2023/07/11 12:45:21;;;;;;;3.83;1.50;;;29.60;1.00;;;;;;5022998;28;37300;-78
2023/07/11 12:47:51;;;;;;;3.22;1.20;;;29.30;99.90;;;;;;5031170;28;36913;-78
2023/07/11 12:50:31;;;;;;;5.85;1.52;;;29.10;99.90;;;;;;5034004;28;38303;-78
2023/07/11 12:53:02;;;;;;;6.70;1.42;;;29.10;1.00;;;;;;5032125;28;37303;-78
2023/07/11 12:55:29;;;;;;;;;;;29.00;1.00;;;;;;5023244;28;47247;-78
2023/07/11 12:57:56;;;;;;;4.55;1.33;;;29.50;1.00;;;;;;5026274;28;35328;-78
2023/07/11 13:00:30;;;;;;;5.43;1.25;;;29.70;1.00;;;;;;5023880;28;33989;-78
2023/07/11 13:03:15;;;;;;;4.47;1.60;;;29.40;99.90;;;;;;5053161;28;37727;-78
2023/07/11 13:05:41;;;;;;;6.72;1.60;;;29.00;1.00;;;;;;5027525;28;49038;-78